Pagrindinis puslapis
METAR-TAF:

METAR-TAF

Oro uostai :

Roma, Italija

platuma: 41-57N, ilguma: 012-30E, Aukštis: 18 m

Dabartinis oras

Ataskaita buvo paskelbta 8 valandos ir 1 minutes, ne 17:50 UTC
Vėjas 8 kt iš Vakarų/Pietvakarių
Temperatūra 14°C
Drėgmė 67%
Slėgis 1018 hPa
Matomumas 10 km arba daugiau
nėra debesų žemiau 1500 m ir nėra kamuolinių lietaus debesų

METAR: LIRU 211750Z 24008KT CAVOK 14/08 Q1018

Laikas: 03:51 (01:51 UTC)

Prognozė

Ataskaita buvo paskelbta 11 valandos ir 51 minutes, ne 14:00 UTC
Prognozė galioja nuo 21 metu 15 UTC su 21 metu 24 UTC
Vėjas 10 kt iš Pietų/Pietvakarių
Matomumas 10 km arba daugiau
Išsisklaidę debesys ne aukštis 3000 ft
Tapsmas
nuo 21 metu 18 UTC su 21 metu 20 UTC
Vėjas 4 kt nuo kintamojo kryptimis

TAF: LIRU 211400Z 2115/2124 20010KT 9999 SCT030 BECMG 2118/2120 VRB04KT

Orai ataskaitas ir orų prognozės (METAR, TAF).

turimą stotys yra geltonos ir raudonos taškus žemėlapyje.

Perkelti pele per norėdami pamatyti stoties vardą.

Tada spustelėkite, norėdami matyti oro stebėjimo ir prognozės.

Norėdami pakeisti žemėlapį: spustelėkite ant žalios mygtukų su juodo kryžiaus žemyn,; žalią mygtuką su brūkšneliu, jei norite nutolinti; arba žalių rodyklių gretimoms žemėlapius.


METAR-TAF: